KMPV/MPV METAR and TAF weather

Enter ICAO airport designator
Station Type Date Time Source
KMPV METAR 2020/09/18 18:51 UTC NOAA

KMPV 181851Z AUTO 02011G16KT 10SM CLR 14/01 A3010 RMK AO2 SLP198 T01440006


Station Type Date Time Source
KMPV Decoded METAR 2020/09/18 18:51 UTC NOAA

KNAPP STATE AIRPORT, VT, United States (KMPV) 44-12N 072-34W 343M
Sep 18, 2020 - 02:51 PM EDT / 2020.09.18 1851 UTC
Wind: from the NNE (020 degrees) at 13 MPH (11 KT) gusting to 18 MPH (16 KT):0
Visibility: 10 mile(s):0
Sky conditions: clear
Temperature: 57.9 F (14.4 C)
Dew Point: 33.1 F (0.6 C)
Relative Humidity: 38%
Pressure (altimeter): 30.1 in. Hg (1019 hPa)
ob: KMPV 181851Z AUTO 02011G16KT 10SM CLR 14/01 A3010 RMK AO2 SLP198 T01440006
cycle: 19

Station Type Date Time Source
KMPV TAF 2020/09/18 18:27 UTC NOAA

TAF KMPV 181724Z 1818/1918 36009G15KT P6SM FEW120
FM182000 35009KT P6SM SCT060
FM190100 VRB04KT P6SM SKC
FM191600 34005KT P6SM SKC

Example: see airport list